BSMN22 YSNW-YSNW
Flight info
| Callsign | BSMN22 |
|---|---|
| Flight time | N/A |
| Altitude | 3500 |
| Route | DCT NWA YJBY NWA DCT |
| Aircraft | H60/M-SDFGRY/LB1 |
Departure
| Time | 2026-05-06 06:30 |
|---|---|
| Airport | Naval Air Station Nowra - HMAS Albatross (YSNW) |
Arrival
| Time | N/A |
|---|---|
| Airport | Naval Air Station Nowra - HMAS Albatross (YSNW) |
| Time | Latitude | Longitude | Altitude | Speed | Heading |
|---|---|---|---|---|---|
| 2026-05-06 06:05 | -34.94162 | 150.54735 | 361 ft | 0 kts | 47° |
| 2026-05-06 06:27 | -34.94163 | 150.54735 | 361 ft | 1 kts | 9° |
| 2026-05-06 06:27 | -34.94155 | 150.54730 | 364 ft | 0 kts | 265° |
| 2026-05-06 06:28 | -34.94155 | 150.54719 | 368 ft | 3 kts | 264° |
| 2026-05-06 06:29 | -34.94159 | 150.54694 | 361 ft | 6 kts | 240° |
| 2026-05-06 06:29 | -34.94167 | 150.54682 | 367 ft | 1 kts | 224° |
| 2026-05-06 06:29 | -34.94227 | 150.54610 | 384 ft | 31 kts | 223° |
| 2026-05-06 06:29 | -34.94505 | 150.54303 | 563 ft | 78 kts | 225° |
| 2026-05-06 06:30 | -34.95001 | 150.53716 | 861 ft | 117 kts | 226° |
| 2026-05-06 06:30 | -34.95761 | 150.53400 | 1068 ft | 130 kts | 169° |
| 2026-05-06 06:30 | -34.96393 | 150.54096 | 1057 ft | 127 kts | 118° |
| 2026-05-06 06:30 | -34.96929 | 150.54990 | 1310 ft | 128 kts | 118° |
| 2026-05-06 06:31 | -34.97472 | 150.55883 | 1063 ft | 128 kts | 119° |
| 2026-05-06 06:31 | -34.97977 | 150.56652 | 1158 ft | 108 kts | 119° |
| 2026-05-06 06:31 | -34.98465 | 150.57411 | 1162 ft | 119 kts | 118° |
| 2026-05-06 06:31 | -34.98995 | 150.58242 | 1393 ft | 127 kts | 121° |
| 2026-05-06 06:32 | -34.99516 | 150.59106 | 1272 ft | 128 kts | 121° |
| 2026-05-06 06:32 | -35.00074 | 150.59974 | 1471 ft | 138 kts | 122° |
| 2026-05-06 06:32 | -35.00714 | 150.60882 | 1247 ft | 145 kts | 126° |
| 2026-05-06 06:32 | -35.01347 | 150.61710 | 1361 ft | 115 kts | 128° |
| 2026-05-06 06:33 | -35.01926 | 150.62270 | 2044 ft | 99 kts | 135° |
| 2026-05-06 06:33 | -35.02490 | 150.62950 | 2381 ft | 141 kts | 130° |
| 2026-05-06 06:33 | -35.03156 | 150.63967 | 1724 ft | 163 kts | 124° |
| 2026-05-06 06:33 | -35.03861 | 150.64937 | 1650 ft | 146 kts | 128° |
| 2026-05-06 06:34 | -35.04570 | 150.65810 | 1581 ft | 147 kts | 130° |
| 2026-05-06 06:34 | -35.05277 | 150.66661 | 1552 ft | 140 kts | 130° |
| 2026-05-06 06:34 | -35.06035 | 150.67451 | 1495 ft | 146 kts | 135° |
| 2026-05-06 06:34 | -35.06837 | 150.68195 | 1224 ft | 138 kts | 139° |
| 2026-05-06 06:35 | -35.07579 | 150.68845 | 1270 ft | 130 kts | 138° |
| 2026-05-06 06:35 | -35.08394 | 150.69409 | 1051 ft | 139 kts | 147° |
| 2026-05-06 06:35 | -35.09082 | 150.70141 | 737 ft | 125 kts | 116° |
| 2026-05-06 06:35 | -35.09348 | 150.71027 | 877 ft | 100 kts | 103° |
| 2026-05-06 06:36 | -35.09681 | 150.71776 | 1021 ft | 104 kts | 111° |
| 2026-05-06 06:36 | -35.10061 | 150.72558 | 1017 ft | 110 kts | 114° |
| 2026-05-06 06:36 | -35.10756 | 150.72878 | 618 ft | 109 kts | 167° |
| 2026-05-06 06:36 | -35.11314 | 150.72797 | 404 ft | 71 kts | 188° |
| 2026-05-06 06:37 | -35.11560 | 150.72477 | 216 ft | 32 kts | 256° |
| 2026-05-06 06:37 | -35.11568 | 150.72317 | 146 ft | 18 kts | 261° |
| 2026-05-06 06:37 | -35.11547 | 150.72189 | 86 ft | 10 kts | 265° |
| 2026-05-06 06:37 | -35.11539 | 150.72139 | 72 ft | 3 kts | 264° |
| 2026-05-06 06:38 | -35.11535 | 150.72116 | 63 ft | 1 kts | 263° |
| 2026-05-06 06:38 | -35.11527 | 150.72101 | 58 ft | 4 kts | 261° |
| 2026-05-06 06:38 | -35.11516 | 150.72091 | 46 ft | 2 kts | 266° |
| 2026-05-06 06:38 | -35.11515 | 150.72088 | 39 ft | 0 kts | 267° |
| 2026-05-06 06:43 | -35.11517 | 150.72087 | 73 ft | 4 kts | 234° |
| 2026-05-06 06:43 | -35.11638 | 150.71889 | 199 ft | 49 kts | 230° |
| 2026-05-06 06:44 | -35.12045 | 150.71526 | 603 ft | 92 kts | 223° |
| 2026-05-06 06:44 | -35.12544 | 150.70947 | 1343 ft | 104 kts | 229° |
| 2026-05-06 06:44 | -35.13032 | 150.70259 | 1444 ft | 111 kts | 235° |
| 2026-05-06 06:44 | -35.13331 | 150.69386 | 1386 ft | 113 kts | 262° |
| 2026-05-06 06:45 | -35.13545 | 150.68499 | 1056 ft | 109 kts | 230° |
| 2026-05-06 06:45 | -35.14195 | 150.68256 | 606 ft | 94 kts | 160° |
| 2026-05-06 06:45 | -35.14521 | 150.68769 | 296 ft | 72 kts | 100° |
| 2026-05-06 06:45 | -35.14549 | 150.69124 | 211 ft | 0 kts | 96° |